createdAt,value
2022-10-18T00:03:49.544Z,96.0
2022-10-18T00:08:49.586Z,96.0
2022-10-18T00:13:49.555Z,96.0
2022-10-18T00:18:49.552Z,96.0
2022-10-18T00:23:49.561Z,96.0
2022-10-18T00:28:49.592Z,96.0
2022-10-18T00:33:49.565Z,96.0
2022-10-18T00:38:49.564Z,96.0
2022-10-18T00:43:49.566Z,96.0
2022-10-18T00:48:49.620Z,96.0
2022-10-18T00:53:49.570Z,96.0
2022-10-18T00:58:49.579Z,96.0
2022-10-18T01:03:49.590Z,96.5
2022-10-18T01:08:49.579Z,96.5
2022-10-18T01:13:49.586Z,96.0
2022-10-18T01:18:49.588Z,96.0
2022-10-18T01:23:49.590Z,96.0
2022-10-18T01:28:49.628Z,96.0
2022-10-18T01:33:49.664Z,96.0
2022-10-18T01:38:49.599Z,96.0
2022-10-18T01:43:49.601Z,96.0
2022-10-18T01:48:49.605Z,96.0
2022-10-18T01:53:49.609Z,96.0
2022-10-18T01:58:49.606Z,96.0
2022-10-18T02:03:49.630Z,96.0
2022-10-18T02:08:49.622Z,96.0
2022-10-18T02:13:49.618Z,96.0
2022-10-18T02:18:49.618Z,96.0
2022-10-18T02:23:49.619Z,96.0
2022-10-18T02:28:49.628Z,96.0
2022-10-18T02:33:49.634Z,96.0
2022-10-18T02:38:49.631Z,96.0
2022-10-18T02:43:49.641Z,96.0
2022-10-18T02:48:49.644Z,96.0
2022-10-18T02:53:49.644Z,96.0
2022-10-18T02:58:49.649Z,96.0
2022-10-18T03:03:49.642Z,96.0
2022-10-18T03:08:49.650Z,96.0
2022-10-18T03:13:49.654Z,96.0
2022-10-18T03:18:49.651Z,96.0
2022-10-18T03:23:49.656Z,96.0
2022-10-18T03:28:49.711Z,96.0
2022-10-18T03:33:49.662Z,96.0
2022-10-18T03:38:49.667Z,96.0
2022-10-18T03:43:49.664Z,96.0
2022-10-18T03:48:49.669Z,96.0
2022-10-18T03:53:49.687Z,96.0
2022-10-18T03:58:49.672Z,96.0
2022-10-18T04:03:49.684Z,96.0
2022-10-18T04:08:49.677Z,96.0
2022-10-18T04:13:49.695Z,96.0
2022-10-18T04:18:49.680Z,96.0
2022-10-18T04:23:49.685Z,96.0
2022-10-18T04:28:49.733Z,96.0
2022-10-18T04:33:49.691Z,96.0
2022-10-18T04:38:49.715Z,96.0
2022-10-18T04:43:49.710Z,96.5
2022-10-18T04:48:49.706Z,96.5
2022-10-18T04:53:49.709Z,96.5
2022-10-18T04:58:49.710Z,96.5
2022-10-18T05:03:49.718Z,96.5
2022-10-18T05:08:49.716Z,96.5
2022-10-18T05:13:50.938Z,96.5
2022-10-18T05:18:49.721Z,96.5
2022-10-18T05:23:49.721Z,96.5
2022-10-18T05:28:49.770Z,96.5
2022-10-18T05:33:49.726Z,96.5
2022-10-18T05:38:49.734Z,96.5
2022-10-18T05:43:49.734Z,96.5
2022-10-18T05:48:49.736Z,96.0
2022-10-18T05:53:49.744Z,96.0
2022-10-18T05:58:49.740Z,96.5
2022-10-18T06:03:49.745Z,96.5
2022-10-18T06:08:49.743Z,96.0
2022-10-18T06:13:49.743Z,96.5
2022-10-18T06:18:49.750Z,96.5
2022-10-18T06:23:49.757Z,96.5
2022-10-18T06:28:49.861Z,96.5
2022-10-18T06:33:49.757Z,96.5
2022-10-18T06:38:49.761Z,96.5
2022-10-18T06:43:49.774Z,96.5
2022-10-18T06:48:49.780Z,96.5
2022-10-18T06:54:05.922Z,96.5
2022-10-18T06:58:49.833Z,96.5
2022-10-18T07:03:49.777Z,96.5
2022-10-18T07:08:49.780Z,96.5
2022-10-18T07:13:49.777Z,96.5
2022-10-18T07:18:49.783Z,96.5
2022-10-18T07:23:49.788Z,96.5
2022-10-18T07:28:49.936Z,97.0
2022-10-18T07:33:49.806Z,97.0
2022-10-18T07:38:49.798Z,97.0
2022-10-18T07:43:49.796Z,97.0
2022-10-18T07:48:49.798Z,97.0
2022-10-18T07:53:49.808Z,97.0
2022-10-18T07:58:49.807Z,97.0
2022-10-18T08:03:49.815Z,97.5
2022-10-18T08:08:49.812Z,97.0
2022-10-18T08:13:49.818Z,97.0
2022-10-18T08:18:49.823Z,97.0
2022-10-18T08:23:49.828Z,97.0
2022-10-18T08:28:58.468Z,97.0
2022-10-18T08:33:49.845Z,97.0
2022-10-18T08:38:49.836Z,96.5
2022-10-18T08:43:49.837Z,96.5
2022-10-18T08:48:49.841Z,96.5
2022-10-18T08:53:49.839Z,96.5
2022-10-18T08:58:49.844Z,96.5
2022-10-18T09:03:49.928Z,96.0
2022-10-18T09:08:49.857Z,96.0
2022-10-18T09:13:49.855Z,96.0
2022-10-18T09:18:49.860Z,96.0
2022-10-18T09:23:49.856Z,95.5
2022-10-18T09:28:49.946Z,95.0
2022-10-18T09:33:49.861Z,95.0
2022-10-18T09:38:49.874Z,95.0
2022-10-18T09:43:49.877Z,94.5
2022-10-18T09:48:49.885Z,94.5
2022-10-18T09:53:49.879Z,93.5
2022-10-18T09:58:49.892Z,93.0
2022-10-18T10:03:49.895Z,92.0
2022-10-18T10:08:49.899Z,91.5
2022-10-18T10:13:49.896Z,90.5
2022-10-18T10:18:49.902Z,89.5
2022-10-18T10:23:49.905Z,88.5
2022-10-18T10:28:50.012Z,87.5
2022-10-18T10:33:49.913Z,87.0
2022-10-18T10:38:49.916Z,86.5
2022-10-18T10:43:49.917Z,85.0
2022-10-18T10:48:49.937Z,83.5
2022-10-18T10:53:49.927Z,82.0
2022-10-18T10:58:49.980Z,80.5
2022-10-18T11:03:49.975Z,78.5
2022-10-18T11:08:49.940Z,77.0
2022-10-18T11:13:53.253Z,77.0
2022-10-18T11:18:49.947Z,76.5
2022-10-18T11:23:49.950Z,76.0
2022-10-18T11:28:50.044Z,75.5
2022-10-18T11:34:08.270Z,74.0
2022-10-18T11:38:49.956Z,73.5
2022-10-18T11:44:02.200Z,73.0
2022-10-18T11:48:49.965Z,73.0
2022-10-18T11:53:51.863Z,72.0
2022-10-18T11:58:49.974Z,71.0
2022-10-18T12:03:49.977Z,70.0
2022-10-18T12:08:49.973Z,69.5
2022-10-18T12:13:49.981Z,70.0
2022-10-18T12:18:50.170Z,68.5
2022-10-18T12:23:49.990Z,68.5
2022-10-18T12:28:50.029Z,68.0
2022-10-18T12:33:49.996Z,67.0
2022-10-18T12:38:50.005Z,66.5
2022-10-18T12:43:50.000Z,66.5
2022-10-18T12:48:50.016Z,66.0
2022-10-18T12:53:50.016Z,65.5
2022-10-18T12:58:50.044Z,65.5
2022-10-18T13:03:50.022Z,65.5
2022-10-18T13:08:50.030Z,65.0
2022-10-18T13:13:50.030Z,64.5
2022-10-18T13:18:50.028Z,63.5
2022-10-18T13:23:50.035Z,63.5
2022-10-18T13:28:50.079Z,63.0
2022-10-18T13:33:50.038Z,63.0
2022-10-18T13:38:50.043Z,63.0
2022-10-18T13:43:52.448Z,63.0
2022-10-18T13:48:50.048Z,62.5
2022-10-18T13:53:50.045Z,61.0
2022-10-18T13:59:05.728Z,60.5
2022-10-18T14:03:57.489Z,60.5
2022-10-18T14:08:50.058Z,60.0
2022-10-18T14:13:50.062Z,60.0
2022-10-18T14:18:50.060Z,60.0
2022-10-18T14:23:50.060Z,58.5
2022-10-18T14:28:59.948Z,58.5
2022-10-18T14:33:52.684Z,58.5
2022-10-18T14:38:50.124Z,59.0
2022-10-18T14:43:50.080Z,59.0
2022-10-18T14:48:50.083Z,58.5
2022-10-18T14:53:50.079Z,59.0
2022-10-18T14:58:50.084Z,59.0
2022-10-18T15:03:50.080Z,59.0
2022-10-18T15:08:50.125Z,59.0
2022-10-18T15:13:50.095Z,58.5
2022-10-18T15:18:50.100Z,58.5
2022-10-18T15:23:50.100Z,58.5
2022-10-18T15:28:50.201Z,58.0
2022-10-18T15:33:50.101Z,58.5
2022-10-18T15:38:50.261Z,58.5
2022-10-18T15:43:50.109Z,58.5
2022-10-18T15:48:50.106Z,59.0
2022-10-18T15:53:50.110Z,59.5
2022-10-18T15:58:50.108Z,60.0
2022-10-18T16:03:50.155Z,60.0
2022-10-18T16:08:50.110Z,60.5
2022-10-18T16:13:50.117Z,61.0
2022-10-18T16:18:50.117Z,61.5
2022-10-18T16:23:50.116Z,62.0
2022-10-18T16:28:50.188Z,62.0
2022-10-18T16:33:50.128Z,62.5
2022-10-18T16:38:50.126Z,63.0
2022-10-18T16:43:50.126Z,64.0
2022-10-18T16:48:50.130Z,64.0
2022-10-18T16:53:50.131Z,64.5
2022-10-18T16:58:50.129Z,65.0
2022-10-18T17:03:50.135Z,65.5
2022-10-18T17:08:50.134Z,66.0
2022-10-18T17:13:50.136Z,66.5
2022-10-18T17:18:50.135Z,66.5
2022-10-18T17:23:50.133Z,67.0
2022-10-18T17:28:50.197Z,67.5
2022-10-18T17:33:50.141Z,68.0
2022-10-18T17:38:50.140Z,68.5
2022-10-18T17:43:50.147Z,69.0
2022-10-18T17:48:50.154Z,69.0
2022-10-18T17:53:50.148Z,69.5
2022-10-18T17:58:50.147Z,69.5
2022-10-18T18:03:50.172Z,70.0
2022-10-18T18:08:50.153Z,70.0
2022-10-18T18:13:50.153Z,70.5
2022-10-18T18:18:50.160Z,71.0
2022-10-18T18:23:50.161Z,71.0
2022-10-18T18:28:50.276Z,71.5
2022-10-18T18:33:50.159Z,72.0
2022-10-18T18:38:52.043Z,72.0
2022-10-18T18:43:50.171Z,72.5
2022-10-18T18:48:50.164Z,73.0
2022-10-18T18:53:50.172Z,73.0
2022-10-18T18:58:50.172Z,73.0
2022-10-18T19:03:50.177Z,73.5
2022-10-18T19:08:50.175Z,74.0
2022-10-18T19:13:50.182Z,74.0
2022-10-18T19:18:50.197Z,74.5
2022-10-18T19:23:50.319Z,74.5
2022-10-18T19:28:50.268Z,74.5
2022-10-18T19:33:59.381Z,75.0
2022-10-18T19:38:50.188Z,75.0
2022-10-18T19:43:50.191Z,75.5
2022-10-18T19:48:50.193Z,75.5
2022-10-18T19:53:50.207Z,75.5
2022-10-18T19:58:50.204Z,76.0
2022-10-18T20:03:50.194Z,76.0
2022-10-18T20:08:50.203Z,76.5
2022-10-18T20:13:50.201Z,76.5
2022-10-18T20:18:50.207Z,77.0
2022-10-18T20:23:50.259Z,77.0
2022-10-18T20:28:50.312Z,77.0
2022-10-18T20:33:50.207Z,77.5
2022-10-18T20:38:50.215Z,77.5
2022-10-18T20:43:50.222Z,77.5
2022-10-18T20:48:50.219Z,77.5
2022-10-18T20:53:50.290Z,77.5
2022-10-18T20:58:50.226Z,78.0
2022-10-18T21:03:50.234Z,78.0
2022-10-18T21:08:50.223Z,78.0
2022-10-18T21:13:50.238Z,78.5
2022-10-18T21:18:50.236Z,78.5
2022-10-18T21:23:50.240Z,78.5
2022-10-18T21:28:50.265Z,79.0
2022-10-18T21:33:50.244Z,79.0
2022-10-18T21:38:50.240Z,79.0
2022-10-18T21:43:50.239Z,79.0
2022-10-18T21:48:50.249Z,79.5
2022-10-18T21:53:50.252Z,79.5
2022-10-18T21:58:50.252Z,79.5
2022-10-18T22:03:50.253Z,79.5
2022-10-18T22:08:50.363Z,80.0
2022-10-18T22:13:50.258Z,80.0
2022-10-18T22:18:50.264Z,80.0
2022-10-18T22:23:50.376Z,80.0
2022-10-18T22:28:50.404Z,80.0
2022-10-18T22:33:50.386Z,80.5
2022-10-18T22:38:50.364Z,80.5
2022-10-18T22:43:50.271Z,80.5
2022-10-18T22:48:50.372Z,80.5
2022-10-18T22:53:50.387Z,80.5
2022-10-18T22:58:50.388Z,80.5
2022-10-18T23:03:50.545Z,80.5
2022-10-18T23:08:50.386Z,80.5
2022-10-18T23:13:50.386Z,81.0
2022-10-18T23:18:50.391Z,81.0
2022-10-18T23:23:50.385Z,81.0
2022-10-18T23:28:50.514Z,81.0
2022-10-18T23:33:50.409Z,81.0
2022-10-18T23:38:50.392Z,81.0
2022-10-18T23:43:50.399Z,81.5
2022-10-18T23:48:50.403Z,81.5
2022-10-18T23:53:50.398Z,81.5
2022-10-18T23:58:50.399Z,81.5
